Time;durP1;ratioP1;P1;durP2;ratioP2;P2;SDS_P1;SDS_P2;PMS_P1;PMS_P2;Temp;Humidity;BMP_temperature;BMP_pressure;BME280_temperature;BME280_humidity;BME280_pressure;Samples;Min_cycle;Max_cycle;Signal;HPM_P1;HPM_P2
2023/07/17 00:02:13;;;;;;;28.70;5.18;;;;;;;;;;6057539;23;20491;-58
2023/07/17 00:04:40;;;;;;;29.33;5.88;;;;;;;;;;6059784;23;20066;-58
2023/07/17 00:07:15;;;;;;;32.60;5.47;;;;;;;;;;6059398;23;20026;-58
2023/07/17 00:09:46;;;;;;;31.20;5.68;;;;;;;;;;6058190;23;20105;-61
2023/07/17 00:12:13;;;;;;;34.08;5.88;;;;;;;;;;6058527;23;20511;-61
2023/07/17 00:14:47;;;;;;;20.98;4.75;;;;;;;;;;6059819;23;20494;-61
2023/07/17 00:17:20;;;;;;;27.90;4.70;;;;;;;;;;6058444;23;20026;-61
2023/07/17 00:19:55;;;;;;;29.92;5.65;;;;;;;;;;6059518;23;20102;-60
2023/07/17 00:22:31;;;;;;;27.85;6.03;;;;;;;;;;6058410;23;20037;-59
2023/07/17 00:24:59;;;;;;;30.73;5.45;;;;;;;;;;6057898;23;20075;-59
2023/07/17 00:27:26;;;;;;;26.48;4.70;;;;;;;;;;6058619;23;20045;-59
2023/07/17 00:30:06;;;;;;;28.75;5.80;;;;;;;;;;6057935;23;20074;-59
2023/07/17 00:32:40;;;;;;;25.65;5.45;;;;;;;;;;6058143;23;20305;-60
2023/07/17 00:35:14;;;;;;;28.77;5.47;;;;;;;;;;6059409;23;20023;-60
2023/07/17 00:37:42;;;;;;;31.83;5.57;;;;;;;;;;6058303;23;20027;-53
2023/07/17 00:40:09;;;;;;;30.85;5.90;;;;;;;;;;6058578;23;20506;-53
2023/07/17 00:42:43;;;;;;;39.95;6.07;;;;;;;;;;6058300;23;20074;-54
2023/07/17 00:45:10;;;;;;;33.80;6.85;;;;;;;;;;6058795;23;20027;-54
2023/07/17 00:47:44;;;;;;;29.48;5.95;;;;;;;;;;6058586;23;20034;-59
2023/07/17 00:50:19;;;;;;;32.97;6.00;;;;;;;;;;6059013;23;20023;-58
2023/07/17 00:52:46;;;;;;;29.33;6.25;;;;;;;;;;6058710;23;20027;-58
2023/07/17 00:55:20;;;;;;;34.92;5.28;;;;;;;;;;6059364;23;20031;-58
2023/07/17 00:57:48;;;;;;;29.85;5.50;;;;;;;;;;6058449;23;20030;-58
2023/07/17 01:00:16;;;;;;;29.92;6.80;;;;;;;;;;6059675;23;20034;-57
2023/07/17 01:02:53;;;;;;;29.35;5.80;;;;;;;;;;6054396;23;20758;-58
2023/07/17 01:05:20;;;;;;;36.50;6.00;;;;;;;;;;6060277;23;20026;-68
2023/07/17 01:07:55;;;;;;;33.53;6.20;;;;;;;;;;6057459;23;20030;-68
2023/07/17 01:10:23;;;;;;;30.10;6.05;;;;;;;;;;6058610;23;20038;-68
2023/07/17 01:12:50;;;;;;;35.45;5.80;;;;;;;;;;6058579;23;20034;-68
2023/07/17 01:15:24;;;;;;;27.42;5.97;;;;;;;;;;6058333;23;20019;-55
2023/07/17 01:17:51;;;;;;;24.42;5.80;;;;;;;;;;6055554;23;20095;-61
2023/07/17 01:20:25;;;;;;;32.55;6.22;;;;;;;;;;6059479;23;20062;-61
2023/07/17 01:23:00;;;;;;;27.08;5.78;;;;;;;;;;6058281;23;20022;-61
2023/07/17 01:25:34;;;;;;;21.23;5.25;;;;;;;;;;6058219;23;20054;-61
2023/07/17 01:28:01;;;;;;;45.22;6.20;;;;;;;;;;6056480;23;20030;-61
2023/07/17 01:30:28;;;;;;;32.53;6.13;;;;;;;;;;6058499;23;20030;-61
2023/07/17 01:33:02;;;;;;;35.40;5.65;;;;;;;;;;6055049;23;20035;-61
2023/07/17 01:35:30;;;;;;;37.47;6.43;;;;;;;;;;6059025;23;20023;-62
2023/07/17 01:38:04;;;;;;;25.52;5.32;;;;;;;;;;6057915;23;20023;-63
2023/07/17 01:40:31;;;;;;;33.75;6.70;;;;;;;;;;6057361;23;20031;-61
2023/07/17 01:42:58;;;;;;;35.08;6.13;;;;;;;;;;6057992;23;20423;-55
2023/07/17 01:45:32;;;;;;;33.40;5.85;;;;;;;;;;6057236;23;20487;-61
2023/07/17 01:47:59;;;;;;;32.28;6.25;;;;;;;;;;6057379;23;20031;-68
2023/07/17 01:50:33;;;;;;;29.77;6.32;;;;;;;;;;6057600;23;20023;-67
2023/07/17 01:53:00;;;;;;;29.35;5.45;;;;;;;;;;6058253;23;20117;-68
2023/07/17 01:55:27;;;;;;;36.45;6.63;;;;;;;;;;6058631;23;20031;-67
2023/07/17 01:58:01;;;;;;;31.25;5.70;;;;;;;;;;6057143;23;20089;-66
2023/07/17 02:00:28;;;;;;;26.73;4.88;;;;;;;;;;6058393;23;20026;-67
2023/07/17 02:02:55;;;;;;;40.03;6.60;;;;;;;;;;6058273;23;20490;-58
2023/07/17 02:05:29;;;;;;;38.63;6.18;;;;;;;;;;6056429;23;20029;-58
2023/07/17 02:07:56;;;;;;;29.60;7.10;;;;;;;;;;6056808;23;20035;-58
2023/07/17 02:10:30;;;;;;;27.63;5.90;;;;;;;;;;6058754;23;20034;-58
2023/07/17 02:12:57;;;;;;;38.50;6.20;;;;;;;;;;6056709;23;20106;-61
2023/07/17 02:15:24;;;;;;;33.22;5.93;;;;;;;;;;6058930;23;20027;-59
2023/07/17 02:17:59;;;;;;;29.42;5.85;;;;;;;;;;6057261;23;20026;-59
2023/07/17 02:20:26;;;;;;;32.83;6.05;;;;;;;;;;6058561;23;20066;-58
2023/07/17 02:23:00;;;;;;;31.98;6.18;;;;;;;;;;6057091;23;20035;-59
2023/07/17 02:25:28;;;;;;;38.58;6.18;;;;;;;;;;6058152;23;20090;-59
2023/07/17 02:27:56;;;;;;;37.20;6.43;;;;;;;;;;6055923;23;20475;-59
2023/07/17 02:30:43;;;;;;;30.77;6.28;;;;;;;;;;6057333;23;20027;-61
2023/07/17 02:33:18;;;;;;;38.22;6.85;;;;;;;;;;6057337;23;20030;-62
2023/07/17 02:35:52;;;;;;;27.08;6.07;;;;;;;;;;6059510;23;20023;-61
2023/07/17 02:38:19;;;;;;;36.53;6.07;;;;;;;;;;6054020;23;20494;-61
2023/07/17 02:40:46;;;;;;;31.58;5.22;;;;;;;;;;6057059;23;20091;-58
2023/07/17 02:43:21;;;;;;;39.45;6.95;;;;;;;;;;6058170;23;20094;-59
2023/07/17 02:45:48;;;;;;;30.83;5.93;;;;;;;;;;6057644;23;20022;-59
2023/07/17 02:48:16;;;;;;;34.00;5.95;;;;;;;;;;6057014;23;20039;-60
2023/07/17 02:50:50;;;;;;;40.13;7.50;;;;;;;;;;6056843;23;20483;-59
2023/07/17 02:53:18;;;;;;;50.22;8.18;;;;;;;;;;6057139;23;20450;-59
2023/07/17 02:55:52;;;;;;;40.85;6.60;;;;;;;;;;6057463;23;20565;-59
2023/07/17 02:58:21;;;;;;;39.00;7.22;;;;;;;;;;6056811;23;20334;-58
2023/07/17 03:00:48;;;;;;;35.47;6.22;;;;;;;;;;6056413;23;20079;-58
2023/07/17 03:03:22;;;;;;;36.05;6.80;;;;;;;;;;6059437;23;20078;-58
2023/07/17 03:05:49;;;;;;;43.88;7.43;;;;;;;;;;6060347;23;20481;-58
2023/07/17 03:08:23;;;;;;;39.67;6.93;;;;;;;;;;6059702;23;20033;-58
2023/07/17 03:10:57;;;;;;;51.20;7.90;;;;;;;;;;6059289;23;20027;-59
2023/07/17 03:13:31;;;;;;;32.70;7.20;;;;;;;;;;6058497;23;20435;-67
2023/07/17 03:16:05;;;;;;;41.38;7.55;;;;;;;;;;6059931;23;20427;-68
2023/07/17 03:18:39;;;;;;;43.15;7.03;;;;;;;;;;6058324;23;20026;-67
2023/07/17 03:21:13;;;;;;;45.55;6.72;;;;;;;;;;6059990;23;20546;-67
2023/07/17 03:23:40;;;;;;;45.47;7.32;;;;;;;;;;6058776;23;20026;-67
2023/07/17 03:26:07;;;;;;;52.00;7.50;;;;;;;;;;6060628;23;20022;-68
2023/07/17 03:28:41;;;;;;;43.88;7.03;;;;;;;;;;6059053;23;20431;-57
2023/07/17 03:31:14;;;;;;;39.97;7.65;;;;;;;;;;6058013;23;20082;-57
2023/07/17 03:33:48;;;;;;;42.33;6.68;;;;;;;;;;6057622;23;20132;-58
2023/07/17 03:36:15;;;;;;;41.17;7.10;;;;;;;;;;6059142;23;20461;-57
2023/07/17 03:38:43;;;;;;;34.60;6.88;;;;;;;;;;6058529;23;20030;-60
2023/07/17 03:41:20;;;;;;;35.50;7.50;;;;;;;;;;6058960;23;20027;-67
2023/07/17 03:43:47;;;;;;;41.83;7.35;;;;;;;;;;6057632;23;20188;-67
2023/07/17 03:46:21;;;;;;;42.25;7.20;;;;;;;;;;6060201;23;20082;-66
2023/07/17 03:48:48;;;;;;;34.78;6.63;;;;;;;;;;6058568;23;20023;-67
2023/07/17 03:51:15;;;;;;;37.63;6.43;;;;;;;;;;6059630;23;20079;-67
2023/07/17 03:53:50;;;;;;;33.47;6.70;;;;;;;;;;6058548;23;20419;-67
2023/07/17 03:56:17;;;;;;;43.65;7.00;;;;;;;;;;6060680;23;20086;-59
2023/07/17 03:58:47;;;;;;;46.47;7.38;;;;;;;;;;6056680;23;20038;-59
2023/07/17 04:01:21;;;;;;;40.63;6.35;;;;;;;;;;6059080;23;20027;-58
2023/07/17 04:03:48;;;;;;;49.15;7.40;;;;;;;;;;6058258;23;20173;-59
2023/07/17 04:06:22;;;;;;;37.78;6.78;;;;;;;;;;6059554;23;20023;-58
2023/07/17 04:08:49;;;;;;;41.55;6.78;;;;;;;;;;6056309;23;20063;-57
2023/07/17 04:11:16;;;;;;;39.30;7.38;;;;;;;;;;6059721;23;20439;-57
2023/07/17 04:13:52;;;;;;;32.08;7.00;;;;;;;;;;6058196;23;20900;-58
2023/07/17 04:16:20;;;;;;;38.17;7.45;;;;;;;;;;6059202;23;20086;-57
2023/07/17 04:18:48;;;;;;;44.08;6.88;;;;;;;;;;6057579;23;20019;-57
2023/07/17 04:21:22;;;;;;;31.00;5.78;;;;;;;;;;6058782;23;20031;-56
2023/07/17 04:23:50;;;;;;;51.22;7.88;;;;;;;;;;6058945;23;20031;-62
2023/07/17 04:26:25;;;;;;;33.42;6.47;;;;;;;;;;6059820;23;20343;-62
2023/07/17 04:28:52;;;;;;;42.17;7.22;;;;;;;;;;6057461;23;20027;-62
2023/07/17 04:31:27;;;;;;;42.28;8.10;;;;;;;;;;6059078;23;20041;-63
2023/07/17 04:34:01;;;;;;;42.97;8.35;;;;;;;;;;6058251;23;20101;-58
2023/07/17 04:36:28;;;;;;;43.88;7.15;;;;;;;;;;6058413;23;20033;-71
2023/07/17 04:39:04;;;;;;;36.83;6.68;;;;;;;;;;6059024;23;20371;-60
2023/07/17 04:41:32;;;;;;;50.33;7.32;;;;;;;;;;6058590;23;20026;-60
2023/07/17 04:43:59;;;;;;;38.42;7.00;;;;;;;;;;6052487;23;20027;-60
2023/07/17 04:46:34;;;;;;;44.03;7.57;;;;;;;;;;6059265;23;20376;-60
2023/07/17 04:49:02;;;;;;;44.50;8.02;;;;;;;;;;6055443;23;20034;-59
2023/07/17 04:51:36;;;;;;;38.90;7.63;;;;;;;;;;6058154;23;20411;-59
2023/07/17 04:54:03;;;;;;;45.70;7.63;;;;;;;;;;6059006;23;20082;-57
2023/07/17 04:56:31;;;;;;;;;;;;;;;;;;6059789;23;20022;-54
2023/07/17 04:59:05;;;;;;;54.08;7.35;;;;;;;;;;6056041;23;19965;-56
2023/07/17 05:01:32;;;;;;;;;;;;;;;;;;6055667;23;20514;-57
2023/07/17 05:04:06;;;;;;;38.35;7.10;;;;;;;;;;6058228;23;20004;-53
2023/07/17 05:06:33;;;;;;;;;;;;;;;;;;6057985;23;20557;-59
2023/07/17 05:09:01;;;;;;;37.05;6.55;;;;;;;;;;6057641;23;19921;-58
2023/07/17 05:11:35;;;;;;;62.97;8.73;;;;;;;;;;6058102;23;20032;-58
2023/07/17 05:14:02;;;;;;;46.80;7.85;;;;;;;;;;6057645;23;20026;-58
2023/07/17 05:16:36;;;;;;;54.88;8.75;;;;;;;;;;6057160;23;20026;-59
2023/07/17 05:19:03;;;;;;;;;;;;;;;;;;6059066;23;20360;-58
2023/07/17 05:21:30;;;;;;;53.65;8.18;;;;;;;;;;6057922;23;20346;-57
2023/07/17 05:24:04;;;;;;;52.83;8.15;;;;;;;;;;6058943;23;20019;-56
2023/07/17 05:26:31;;;;;;;48.53;8.02;;;;;;;;;;6059043;23;20026;-57
2023/07/17 05:28:58;;;;;;;58.30;9.45;;;;;;;;;;6056684;23;20030;-57
2023/07/17 05:31:40;;;;;;;57.72;9.07;;;;;;;;;;6055486;23;20027;-59
2023/07/17 05:34:07;;;;;;;63.33;9.88;;;;;;;;;;6056011;23;20379;-59
2023/07/17 05:36:41;;;;;;;53.90;9.63;;;;;;;;;;6058037;23;20737;-59
2023/07/17 05:39:08;;;;;;;52.47;8.13;;;;;;;;;;6058023;23;20190;-58
2023/07/17 05:41:35;;;;;;;57.72;9.63;;;;;;;;;;6057429;23;20490;-58
2023/07/17 05:44:10;;;;;;;63.72;10.68;;;;;;;;;;6058099;23;20026;-59
2023/07/17 05:46:37;;;;;;;42.45;8.70;;;;;;;;;;6057931;23;20030;-59
2023/07/17 05:49:04;;;;;;;62.97;10.35;;;;;;;;;;6057938;23;20026;-57
2023/07/17 05:51:38;;;;;;;70.43;10.82;;;;;;;;;;6057105;23;20031;-57
2023/07/17 05:54:06;;;;;;;58.33;10.05;;;;;;;;;;6056545;23;20034;-58
2023/07/17 05:56:40;;;;;;;52.30;9.13;;;;;;;;;;6057262;23;20031;-57
2023/07/17 05:59:07;;;;;;;53.88;8.27;;;;;;;;;;6055036;23;20359;-68
2023/07/17 06:01:34;;;;;;;47.53;9.23;;;;;;;;;;6052603;23;20023;-59
2023/07/17 06:04:08;;;;;;;57.13;8.20;;;;;;;;;;6057551;23;20027;-55
2023/07/17 06:06:35;;;;;;;;;;;;;;;;;;6050602;23;20027;-54
2023/07/17 06:09:09;;;;;;;54.28;9.77;;;;;;;;;;6057801;23;19917;-55
2023/07/17 06:11:36;;;;;;;47.92;8.13;;;;;;;;;;6056983;23;20022;-54
2023/07/17 06:14:03;;;;;;;55.50;9.07;;;;;;;;;;6058033;23;20034;-54
2023/07/17 06:16:37;;;;;;;46.55;7.45;;;;;;;;;;6058976;23;20086;-54
2023/07/17 06:19:04;;;;;;;43.03;7.55;;;;;;;;;;6058454;23;20101;-59
2023/07/17 06:21:38;;;;;;;51.10;8.45;;;;;;;;;;6058568;23;20019;-58
2023/07/17 06:24:08;;;;;;;44.85;7.30;;;;;;;;;;6059570;23;20027;-58
2023/07/17 06:26:36;;;;;;;43.22;7.10;;;;;;;;;;6059734;23;20430;-59
2023/07/17 06:29:10;;;;;;;39.58;7.20;;;;;;;;;;6055076;23;20490;-59
2023/07/17 06:31:45;;;;;;;51.60;7.88;;;;;;;;;;6059299;23;20022;-59
2023/07/17 06:34:20;;;;;;;40.35;7.72;;;;;;;;;;6057030;23;20466;-59
2023/07/17 06:36:49;;;;;;;53.90;8.18;;;;;;;;;;6055956;23;20084;-58
2023/07/17 06:39:16;;;;;;;49.53;8.15;;;;;;;;;;6057966;23;20102;-58
2023/07/17 06:41:50;;;;;;;39.58;7.57;;;;;;;;;;6059977;23;20027;-59
2023/07/17 06:44:17;;;;;;;31.63;7.28;;;;;;;;;;6055852;23;20090;-58
2023/07/17 06:46:44;;;;;;;37.50;7.47;;;;;;;;;;6062374;23;20411;-53
2023/07/17 06:49:18;;;;;;;37.35;7.28;;;;;;;;;;6059401;23;20027;-52
2023/07/17 06:51:49;;;;;;;43.90;7.28;;;;;;;;;;6060895;23;20098;-51
2023/07/17 06:54:23;;;;;;;42.42;7.55;;;;;;;;;;6059194;23;20027;-52
2023/07/17 06:56:50;;;;;;;35.35;7.28;;;;;;;;;;6061093;23;20031;-57
2023/07/17 06:59:17;;;;;;;35.97;7.25;;;;;;;;;;6059898;23;20153;-57
2023/07/17 07:01:51;;;;;;;36.92;6.65;;;;;;;;;;6058854;23;20030;-56
2023/07/17 07:04:18;;;;;;;33.60;6.10;;;;;;;;;;6059084;23;20023;-57
2023/07/17 07:06:52;;;;;;;31.42;6.45;;;;;;;;;;6061413;23;20086;-57
2023/07/17 07:09:19;;;;;;;30.92;6.18;;;;;;;;;;6058220;23;20110;-57
2023/07/17 07:11:46;;;;;;;29.77;5.32;;;;;;;;;;6060550;23;20026;-57
2023/07/17 07:14:20;;;;;;;33.90;5.85;;;;;;;;;;6061616;23;20090;-62
2023/07/17 07:16:47;;;;;;;27.70;6.20;;;;;;;;;;6057243;23;20035;-62
2023/07/17 07:19:21;;;;;;;28.83;5.57;;;;;;;;;;6060342;23;20030;-61
2023/07/17 07:21:48;;;;;;;25.27;6.05;;;;;;;;;;6058569;23;20031;-62
2023/07/17 07:24:15;;;;;;;30.42;5.70;;;;;;;;;;6058070;23;20085;-57
2023/07/17 07:26:49;;;;;;;29.73;5.43;;;;;;;;;;6057882;23;20031;-62
2023/07/17 07:29:16;;;;;;;35.70;5.68;;;;;;;;;;6059183;23;20087;-58
2023/07/17 07:31:49;;;;;;;28.55;5.43;;;;;;;;;;6058507;23;20031;-58
2023/07/17 07:34:23;;;;;;;24.27;4.85;;;;;;;;;;6057927;23;20022;-58
2023/07/17 07:36:57;;;;;;;26.85;6.20;;;;;;;;;;6060005;23;20086;-58
2023/07/17 07:39:24;;;;;;;27.77;4.80;;;;;;;;;;6058477;23;20514;-58
2023/07/17 07:41:51;;;;;;;26.58;5.10;;;;;;;;;;6057328;23;20078;-58
2023/07/17 07:44:25;;;;;;;23.67;5.25;;;;;;;;;;6059762;23;20030;-58
2023/07/17 07:46:52;;;;;;;21.30;4.85;;;;;;;;;;6059140;23;20090;-57
2023/07/17 07:49:26;;;;;;;30.48;5.18;;;;;;;;;;6058554;23;20034;-57
2023/07/17 07:51:53;;;;;;;21.10;4.78;;;;;;;;;;6058588;23;20027;-57
2023/07/17 07:54:20;;;;;;;20.48;4.40;;;;;;;;;;6057909;23;20495;-58
2023/07/17 07:56:54;;;;;;;22.85;4.82;;;;;;;;;;6058576;23;20023;-62
2023/07/17 07:59:21;;;;;;;21.75;5.10;;;;;;;;;;6058426;23;20022;-62
2023/07/17 08:01:55;;;;;;;20.67;4.57;;;;;;;;;;6057172;23;20552;-62
2023/07/17 08:04:23;;;;;;;19.80;4.30;;;;;;;;;;6057627;23;20023;-62
2023/07/17 08:06:50;;;;;;;21.67;3.72;;;;;;;;;;6059523;23;20030;-62
2023/07/17 08:09:25;;;;;;;21.08;4.82;;;;;;;;;;6059262;23;20019;-62
2023/07/17 08:11:55;;;;;;;24.50;4.82;;;;;;;;;;6059984;23;20085;-58
2023/07/17 08:14:29;;;;;;;22.20;4.53;;;;;;;;;;6058109;23;20058;-58
2023/07/17 08:16:56;;;;;;;22.65;4.50;;;;;;;;;;6059260;23;20542;-58
2023/07/17 08:19:23;;;;;;;24.70;4.78;;;;;;;;;;6057446;23;20032;-58
2023/07/17 08:21:57;;;;;;;20.52;3.83;;;;;;;;;;6059450;23;20502;-52
2023/07/17 08:24:24;;;;;;;21.35;4.72;;;;;;;;;;6059837;23;20076;-58
2023/07/17 08:26:58;;;;;;;31.00;5.50;;;;;;;;;;6058869;23;20034;-59
2023/07/17 08:29:33;;;;;;;22.90;4.60;;;;;;;;;;6059863;23;20027;-59
2023/07/17 08:32:14;;;;;;;30.65;4.95;;;;;;;;;;6029347;23;20031;-59
2023/07/17 08:34:48;;;;;;;22.95;4.07;;;;;;;;;;6028652;23;20028;-58
2023/07/17 08:37:15;;;;;;;20.85;4.68;;;;;;;;;;6030970;23;20555;-58
2023/07/17 08:39:43;;;;;;;;;;;;;;;;;;6031871;23;20027;-59
2023/07/17 08:42:17;;;;;;;17.42;4.40;;;;;;;;;;6029790;23;19973;-60
2023/07/17 08:44:44;;;;;;;28.20;4.75;;;;;;;;;;6029907;23;20316;-61
2023/07/17 08:47:14;;;;;;;23.55;4.55;;;;;;;;;;6030454;23;20019;-60
2023/07/17 08:50:09;;;;;;;20.42;4.20;;;;;;;;;;6029761;23;20630;-59
2023/07/17 08:53:03;;;;;;;14.40;3.80;;;;;;;;;;6028342;23;20023;-58
2023/07/17 08:55:57;;;;;;;18.15;4.28;;;;;;;;;;6028360;23;20075;-58
2023/07/17 08:58:51;;;;;;;22.20;4.63;;;;;;;;;;6029855;23;20031;-57
2023/07/17 09:01:45;;;;;;;10.68;3.50;;;;;;;;;;6028670;23;20440;-58
2023/07/17 09:04:39;;;;;;;20.02;3.95;;;;;;;;;;6029019;23;20073;-58
2023/07/17 09:07:33;;;;;;;16.23;4.22;;;;;;;;;;6029913;23;20023;-59
2023/07/17 09:10:19;;;;;;;15.30;4.13;;;;;;;;;;6022378;23;20495;-51
2023/07/17 09:12:58;;;;;;;17.63;4.15;;;;;;;;;;6029701;23;20372;-58
2023/07/17 09:15:27;;;;;;;22.70;4.25;;;;;;;;;;6028301;23;20031;-59
2023/07/17 09:18:01;;;;;;;21.17;4.43;;;;;;;;;;6028741;23;20027;-58
2023/07/17 09:20:35;;;;;;;15.65;3.90;;;;;;;;;;6030016;23;20023;-59
2023/07/17 09:23:03;;;;;;;;;;;;;;;;;;6030564;23;20023;-59
2023/07/17 09:25:31;;;;;;;15.40;3.67;;;;;;;;;;6027606;23;19969;-59
2023/07/17 09:28:05;;;;;;;22.60;3.95;;;;;;;;;;6031377;23;20043;-63
2023/07/17 09:30:39;;;;;;;19.73;4.10;;;;;;;;;;6039980;23;20027;-63
2023/07/17 09:33:24;;;;;;;22.48;3.92;;;;;;;;;;6058910;23;20110;-63
2023/07/17 09:35:58;;;;;;;19.83;4.28;;;;;;;;;;6056791;23;20018;-62
2023/07/17 09:38:32;;;;;;;20.77;3.80;;;;;;;;;;6058677;23;20102;-63
2023/07/17 09:41:00;;;;;;;21.33;5.05;;;;;;;;;;6058207;23;20031;-63
2023/07/17 09:43:30;;;;;;;23.40;4.63;;;;;;;;;;6056590;23;20074;-63
2023/07/17 09:46:05;;;;;;;;;;;;;;;;;;6059239;23;20086;-54
2023/07/17 09:48:32;;;;;;;19.55;4.63;;;;;;;;;;6057974;23;20409;-50
2023/07/17 09:51:06;;;;;;;17.20;4.05;;;;;;;;;;6058461;23;20030;-54
2023/07/17 09:53:33;;;;;;;15.82;3.90;;;;;;;;;;6056472;23;20569;-54
2023/07/17 09:56:01;;;;;;;16.55;3.88;;;;;;;;;;6057686;23;20486;-59
2023/07/17 09:58:35;;;;;;;19.38;4.18;;;;;;;;;;6058630;23;20026;-59
2023/07/17 10:01:03;;;;;;;23.42;4.85;;;;;;;;;;6051493;23;20026;-59
2023/07/17 10:03:37;;;;;;;18.17;3.97;;;;;;;;;;6057488;23;20525;-60
2023/07/17 10:06:05;;;;;;;16.65;4.43;;;;;;;;;;6057834;23;20019;-60
2023/07/17 10:08:32;;;;;;;;;;;;;;;;;;6056879;23;20030;-60
2023/07/17 10:11:06;;;;;;;17.75;4.07;;;;;;;;;;6056888;23;20004;-60
2023/07/17 10:13:34;;;;;;;21.02;4.75;;;;;;;;;;6052343;23;20046;-71
2023/07/17 10:16:09;;;;;;;20.42;4.55;;;;;;;;;;6057990;23;20078;-61
2023/07/17 10:18:36;;;;;;;;;;;;;;;;;;6057014;23;20065;-60
2023/07/17 10:21:06;;;;;;;25.88;5.00;;;;;;;;;;6057611;23;19921;-60
2023/07/17 10:23:42;;;;;;;29.10;5.00;;;;;;;;;;6057458;23;20102;-61
2023/07/17 10:26:10;;;;;;;32.05;5.20;;;;;;;;;;6057469;23;20038;-59
2023/07/17 10:28:37;;;;;;;24.00;5.30;;;;;;;;;;6058636;23;20554;-59
2023/07/17 10:31:23;;;;;;;25.00;5.32;;;;;;;;;;6057291;23;20026;-60
2023/07/17 10:34:09;;;;;;;19.98;5.18;;;;;;;;;;6057679;23;20022;-60
2023/07/17 10:36:44;;;;;;;35.60;6.05;;;;;;;;;;6057553;23;20078;-59
2023/07/17 10:39:19;;;;;;;20.85;4.95;;;;;;;;;;6058597;23;20090;-59
2023/07/17 10:41:53;;;;;;;23.27;5.35;;;;;;;;;;6056041;23;20070;-59
2023/07/17 10:44:20;;;;;;;17.30;4.88;;;;;;;;;;6057816;23;20030;-70
2023/07/17 10:46:48;;;;;;;;;;;;;;;;;;6058247;23;20442;-60
2023/07/17 10:49:22;;;;;;;13.15;3.95;;;;;;;;;;6058823;23;19925;-60
2023/07/17 10:51:50;;;;;;;18.83;4.10;;;;;;;;;;6058041;23;20367;-60
2023/07/17 10:54:26;;;;;;;17.77;4.30;;;;;;;;;;6058034;23;20038;-61
2023/07/17 10:56:53;;;;;;;13.77;4.00;;;;;;;;;;6055414;23;20031;-59
2023/07/17 10:59:21;;;;;;;20.33;3.78;;;;;;;;;;6056624;23;20031;-60
2023/07/17 11:02:00;;;;;;;14.60;3.78;;;;;;;;;;6056583;23;20023;-65
2023/07/17 11:04:28;;;;;;;9.88;3.15;;;;;;;;;;6059304;23;20029;-65
2023/07/17 11:07:08;;;;;;;18.38;3.58;;;;;;;;;;6057785;23;20428;-65
2023/07/17 11:09:35;;;;;;;10.32;3.30;;;;;;;;;;6054858;23;20102;-64
2023/07/17 11:12:09;;;;;;;13.25;3.25;;;;;;;;;;6054624;23;20086;-68
2023/07/17 11:14:36;;;;;;;17.27;3.70;;;;;;;;;;6054203;23;20494;-63
2023/07/17 11:17:03;;;;;;;10.30;2.80;;;;;;;;;;6056340;23;20121;-63
2023/07/17 11:19:37;;;;;;;8.57;2.55;;;;;;;;;;6056468;23;20562;-63
2023/07/17 11:22:04;;;;;;;8.43;2.80;;;;;;;;;;6057051;23;20026;-63
2023/07/17 11:24:32;;;;;;;10.43;2.55;;;;;;;;;;6057942;23;20023;-63
2023/07/17 11:27:14;;;;;;;13.32;2.67;;;;;;;;;;6060798;23;20427;-63
2023/07/17 11:29:50;;;;;;;8.00;2.70;;;;;;;;;;6060012;23;20031;-60
2023/07/17 11:32:31;;;;;;;11.15;2.50;;;;;;;;;;6028605;23;20087;-60
2023/07/17 11:34:59;;;;;;;12.68;2.90;;;;;;;;;;6030714;23;20035;-60
2023/07/17 11:37:34;;;;;;;9.85;2.45;;;;;;;;;;6030202;23;20027;-59
2023/07/17 11:40:08;;;;;;;15.55;2.80;;;;;;;;;;6027767;23;20034;-59
2023/07/17 11:42:55;;;;;;;10.05;2.47;;;;;;;;;;6030835;23;20025;-59
2023/07/17 11:45:27;;;;;;;10.25;2.50;;;;;;;;;;6030098;23;20055;-59
2023/07/17 11:48:02;;;;;;;9.82;2.90;;;;;;;;;;6031340;23;20019;-63
2023/07/17 11:50:30;;;;;;;11.32;2.45;;;;;;;;;;6030107;23;20074;-68
2023/07/17 11:53:06;;;;;;;14.85;3.45;;;;;;;;;;6029766;23;20533;-68
2023/07/17 11:55:41;;;;;;;10.30;2.58;;;;;;;;;;6029777;23;20069;-68
2023/07/17 11:58:18;;;;;;;16.17;3.20;;;;;;;;;;6030278;23;20031;-68
2023/07/17 12:00:47;;;;;;;16.38;3.53;;;;;;;;;;6028888;23;20375;-68
2023/07/17 12:03:15;;;;;;;16.33;3.33;;;;;;;;;;6030013;23;20428;-68
2023/07/17 12:05:48;;;;;;;15.10;2.97;;;;;;;;;;6029443;23;20023;-67
2023/07/17 12:08:16;;;;;;;13.27;2.97;;;;;;;;;;6029571;23;20491;-60
2023/07/17 12:10:49;;;;;;;16.52;2.88;;;;;;;;;;6028659;23;20513;-60
2023/07/17 12:13:17;;;;;;;19.42;2.97;;;;;;;;;;6031505;23;20042;-60
2023/07/17 12:15:45;;;;;;;12.45;2.65;;;;;;;;;;6029128;23;20027;-61
2023/07/17 12:18:19;;;;;;;24.60;3.17;;;;;;;;;;6029401;23;20035;-60
2023/07/17 12:20:46;;;;;;;14.50;3.03;;;;;;;;;;6029625;23;20039;-60
2023/07/17 12:23:21;;;;;;;16.85;3.20;;;;;;;;;;6030558;23;20027;-60
2023/07/17 12:25:48;;;;;;;22.25;3.28;;;;;;;;;;6031099;23;20570;-60
2023/07/17 12:28:16;;;;;;;17.17;3.05;;;;;;;;;;6030032;23;20042;-60
2023/07/17 12:30:57;;;;;;;15.13;3.15;;;;;;;;;;6039793;23;20023;-59
2023/07/17 12:33:24;;;;;;;14.40;2.83;;;;;;;;;;6058160;23;20026;-59
2023/07/17 12:35:58;;;;;;;12.35;2.75;;;;;;;;;;6056793;23;20031;-53
2023/07/17 12:38:25;;;;;;;11.88;2.90;;;;;;;;;;6058438;23;20435;-62
2023/07/17 12:40:52;;;;;;;12.32;2.75;;;;;;;;;;6055404;23;20027;-62
2023/07/17 12:43:26;;;;;;;11.10;2.75;;;;;;;;;;6058695;23;20082;-64
2023/07/17 12:45:53;;;;;;;11.88;2.10;;;;;;;;;;6056156;23;20090;-62
2023/07/17 12:48:20;;;;;;;14.10;2.53;;;;;;;;;;6059883;23;20030;-62
2023/07/17 12:50:54;;;;;;;9.55;2.50;;;;;;;;;;6057245;23;20022;-63
2023/07/17 12:53:25;;;;;;;12.38;2.60;;;;;;;;;;6059400;23;20086;-58
2023/07/17 12:55:59;;;;;;;14.25;2.55;;;;;;;;;;6058667;23;20022;-58
2023/07/17 12:58:42;;;;;;;10.50;2.00;;;;;;;;;;6056817;23;20101;-58
2023/07/17 13:01:16;;;;;;;8.15;2.38;;;;;;;;;;6056697;23;20034;-58
2023/07/17 13:03:44;;;;;;;10.05;2.35;;;;;;;;;;6057852;23;20022;-58
2023/07/17 13:06:12;;;;;;;7.20;1.80;;;;;;;;;;6058266;23;20065;-59
2023/07/17 13:08:47;;;;;;;7.55;1.88;;;;;;;;;;6056921;23;20030;-58
2023/07/17 13:11:14;;;;;;;13.73;2.47;;;;;;;;;;6057220;23;20058;-58
2023/07/17 13:13:41;;;;;;;;;;;;;;;;;;6057911;23;20131;-58
2023/07/17 13:16:15;;;;;;;14.23;2.85;;;;;;;;;;6057509;23;19948;-58
2023/07/17 13:18:42;;;;;;;6.97;2.08;;;;;;;;;;6060004;23;20041;-58
2023/07/17 13:21:10;;;;;;;11.70;2.22;;;;;;;;;;6056750;23;20026;-58
2023/07/17 13:23:44;;;;;;;6.95;2.22;;;;;;;;;;6057671;23;20569;-58
2023/07/17 13:26:12;;;;;;;14.18;2.38;;;;;;;;;;6058446;23;20074;-58
2023/07/17 13:28:46;;;;;;;11.98;2.45;;;;;;;;;;6056806;23;20030;-59
2023/07/17 13:31:26;;;;;;;10.30;2.55;;;;;;;;;;6058907;23;20054;-59
2023/07/17 13:34:00;;;;;;;10.00;2.60;;;;;;;;;;6058915;23;20422;-58
2023/07/17 13:36:27;;;;;;;9.38;2.63;;;;;;;;;;6054688;23;20377;-58
2023/07/17 13:38:55;;;;;;;;;;;;;;;;;;6058446;23;20026;-58
2023/07/17 13:41:40;;;;;;;15.73;2.65;;;;;;;;;;6057568;23;20392;-58
2023/07/17 13:44:07;;;;;;;;;;;;;;;;;;6059251;23;20049;-58
2023/07/17 13:46:42;;;;;;;10.45;2.55;;;;;;;;;;6058057;23;20292;-58
2023/07/17 13:49:12;;;;;;;9.38;3.00;;;;;;;;;;6057825;23;20074;-59
2023/07/17 13:51:39;;;;;;;14.85;2.58;;;;;;;;;;6057916;23;20043;-49
2023/07/17 13:54:13;;;;;;;13.65;2.90;;;;;;;;;;6058799;23;20447;-58
2023/07/17 13:56:46;;;;;;;15.32;2.42;;;;;;;;;;6055926;23;20483;-57
2023/07/17 13:59:23;;;;;;;10.88;2.65;;;;;;;;;;6055364;23;20530;-58
2023/07/17 14:01:50;;;;;;;12.93;3.10;;;;;;;;;;6056542;23;20039;-57
2023/07/17 14:04:17;;;;;;;13.57;2.33;;;;;;;;;;6056623;23;20106;-58
2023/07/17 14:06:51;;;;;;;11.85;2.75;;;;;;;;;;6056966;23;20101;-58
2023/07/17 14:09:18;;;;;;;15.27;2.47;;;;;;;;;;6058047;23;20487;-58
2023/07/17 14:11:46;;;;;;;10.80;2.53;;;;;;;;;;6057375;23;20110;-58
2023/07/17 14:14:20;;;;;;;13.68;2.47;;;;;;;;;;6055504;23;20034;-58
2023/07/17 14:16:47;;;;;;;17.33;2.67;;;;;;;;;;6055937;23;20447;-57
2023/07/17 14:19:21;;;;;;;10.85;2.30;;;;;;;;;;6057224;23;20038;-54
2023/07/17 14:21:50;;;;;;;13.52;2.67;;;;;;;;;;6056897;23;20341;-57
2023/07/17 14:24:17;;;;;;;20.00;2.88;;;;;;;;;;6056660;23;20027;-58
2023/07/17 14:26:51;;;;;;;10.77;2.95;;;;;;;;;;6050741;23;20031;-57
2023/07/17 14:29:18;;;;;;;11.90;2.80;;;;;;;;;;6057940;23;20069;-58
2023/07/17 14:31:46;;;;;;;8.85;2.53;;;;;;;;;;6057047;23;20034;-58
2023/07/17 14:34:24;;;;;;;10.13;2.03;;;;;;;;;;6058062;23;20541;-58
2023/07/17 14:36:51;;;;;;;11.48;2.47;;;;;;;;;;6052162;23;20394;-58
2023/07/17 14:39:27;;;;;;;9.50;2.63;;;;;;;;;;6058057;23;20448;-62
2023/07/17 14:41:54;;;;;;;6.40;2.35;;;;;;;;;;6057080;23;20027;-63
2023/07/17 14:44:48;;;;;;;9.65;2.40;;;;;;;;;;6055360;23;20029;-63
2023/07/17 14:47:42;;;;;;;9.60;2.83;;;;;;;;;;6057609;23;20026;-62
2023/07/17 14:50:37;;;;;;;11.88;2.63;;;;;;;;;;6055580;23;20079;-64
2023/07/17 14:53:24;;;;;;;9.63;2.28;;;;;;;;;;6058408;23;20035;-63
2023/07/17 14:56:18;;;;;;;13.38;2.97;;;;;;;;;;6059184;23;20082;-58
2023/07/17 14:59:12;;;;;;;17.60;3.63;;;;;;;;;;6057051;23;20550;-58
2023/07/17 15:02:07;;;;;;;14.45;2.45;;;;;;;;;;6058679;23;20035;-58
2023/07/17 15:05:00;;;;;;;13.05;3.17;;;;;;;;;;6058410;23;20019;-58